Time;durP1;ratioP1;P1;durP2;ratioP2;P2;SDS_P1;SDS_P2;PMS_P1;PMS_P2;Temp;Humidity;BMP_temperature;BMP_pressure;BME280_temperature;BME280_humidity;BME280_pressure;Samples;Min_cycle;Max_cycle;Signal;HPM_P1;HPM_P2
2023/12/28 00:01:42;0.00;0.00;0.62;0.00;0.00;0.62;2.37;1.70;;;21.40;27.10;;;;;;2252361;61;20799;-62
2023/12/28 00:04:28;0.00;0.00;0.62;0.00;0.00;0.62;2.10;1.60;;;21.40;27.10;;;;;;2252816;61;20441;-62
2023/12/28 00:07:13;0.00;0.00;0.62;0.00;0.00;0.62;2.10;1.67;;;21.40;27.10;;;;;;2252913;61;20410;-62
2023/12/28 00:09:58;0.00;0.00;0.62;0.00;0.00;0.62;3.33;1.70;;;21.40;27.20;;;;;;2252397;61;20386;-63
2023/12/28 00:12:44;0.00;0.00;0.62;0.00;0.00;0.62;2.70;1.83;;;21.40;27.10;;;;;;2252429;61;20359;-62
2023/12/28 00:15:28;0.00;0.00;0.62;0.00;0.00;0.62;2.30;1.67;;;21.30;27.10;;;;;;2252631;61;20421;-62
2023/12/28 00:18:13;0.00;0.00;0.62;0.00;0.00;0.62;2.03;1.50;;;21.40;27.10;;;;;;2252432;61;20418;-62
2023/12/28 00:20:57;0.00;0.00;0.62;0.00;0.00;0.62;2.53;1.70;;;21.40;27.10;;;;;;2252320;61;20497;-61
2023/12/28 00:23:42;0.00;0.00;0.62;0.00;0.00;0.62;2.30;1.63;;;21.40;27.10;;;;;;2252352;61;20903;-62
2023/12/28 00:26:26;0.00;0.00;0.62;0.00;0.00;0.62;2.10;1.50;;;21.30;27.10;;;;;;2252435;61;20966;-62
2023/12/28 00:29:22;0.00;0.00;0.62;0.00;0.00;0.62;2.03;1.40;;;21.30;27.00;;;;;;2255020;61;20907;-62
2023/12/28 00:32:06;0.00;0.00;0.62;0.00;0.00;0.62;3.10;1.70;;;21.40;27.10;;;;;;2252105;61;20954;-62
2023/12/28 00:34:51;0.00;0.00;0.62;0.00;0.00;0.62;2.47;1.60;;;21.40;27.10;;;;;;2254929;61;20358;-63
2023/12/28 00:37:36;0.00;0.00;0.62;0.00;0.00;0.62;2.40;1.50;;;21.30;27.00;;;;;;2252856;61;20370;-60
2023/12/28 00:40:21;0.00;0.00;0.62;0.00;0.00;0.62;2.20;1.60;;;21.40;27.10;;;;;;2252286;61;20394;-62
2023/12/28 00:43:07;0.00;0.00;0.62;0.00;0.00;0.62;1.80;1.30;;;21.40;27.10;;;;;;2254659;61;20430;-63
2023/12/28 00:45:53;0.00;0.00;0.62;0.00;0.00;0.62;2.20;1.67;;;21.40;27.10;;;;;;2252647;61;21025;-63
2023/12/28 00:48:38;0.00;0.00;0.62;0.00;0.00;0.62;2.30;1.50;;;21.40;27.10;;;;;;2252344;61;20465;-62
2023/12/28 00:51:23;0.00;0.00;0.62;0.00;0.00;0.62;2.50;1.47;;;21.40;27.10;;;;;;2252393;61;20363;-63
2023/12/28 00:54:07;0.00;0.00;0.62;0.00;0.00;0.62;2.30;1.30;;;21.40;27.00;;;;;;2252263;61;20445;-63
2023/12/28 00:56:52;0.00;0.00;0.62;0.00;0.00;0.62;2.27;1.50;;;21.40;27.10;;;;;;2252628;61;20963;-62
2023/12/28 00:59:37;0.00;0.00;0.62;0.00;0.00;0.62;2.83;1.50;;;21.40;27.10;;;;;;2252643;61;20955;-62
2023/12/28 01:02:23;0.00;0.00;0.62;0.00;0.00;0.62;2.27;1.47;;;21.40;27.10;;;;;;2251795;61;20371;-61
2023/12/28 01:05:08;0.00;0.00;0.62;0.00;0.00;0.62;2.30;1.40;;;21.40;27.10;;;;;;2252696;61;20426;-62
2023/12/28 01:07:53;0.00;0.00;0.62;0.00;0.00;0.62;2.20;1.67;;;21.40;27.10;;;;;;2252649;61;20880;-58
2023/12/28 01:10:37;0.00;0.00;0.62;0.00;0.00;0.62;1.80;1.40;;;21.40;27.10;;;;;;2252672;61;20386;-60
2023/12/28 01:13:22;0.00;0.00;0.62;0.00;0.00;0.62;2.53;1.40;;;21.40;27.10;;;;;;2252793;61;20385;-59
2023/12/28 01:16:06;0.00;0.00;0.62;0.00;0.00;0.62;2.10;1.40;;;21.40;27.10;;;;;;2254845;61;20370;-62
2023/12/28 01:18:53;0.00;0.00;0.62;0.00;0.00;0.62;1.93;1.03;;;21.30;27.00;;;;;;2252327;61;20443;-62
2023/12/28 01:21:38;0.00;0.00;0.62;0.00;0.00;0.62;2.33;1.47;;;21.40;27.10;;;;;;2252374;61;20402;-61
2023/12/28 01:24:24;0.00;0.00;0.62;0.00;0.00;0.62;2.07;1.37;;;21.40;27.10;;;;;;2252507;61;20914;-62
2023/12/28 01:27:08;0.00;0.00;0.62;0.00;0.00;0.62;1.90;1.20;;;21.40;27.10;;;;;;2252925;61;20426;-60
2023/12/28 01:43:25;0.00;0.00;0.62;0.00;0.00;0.62;2.27;1.43;;;21.30;27.10;;;;;;2252174;61;20819;-58
2023/12/28 01:46:15;0.00;0.00;0.62;0.00;0.00;0.62;1.83;1.07;;;21.30;27.20;;;;;;2252708;61;20967;-60
2023/12/28 01:49:01;0.00;0.00;0.62;0.00;0.00;0.62;1.80;1.30;;;21.30;27.20;;;;;;2252516;61;20363;-57
2023/12/28 03:13:45;0.00;0.00;0.62;0.00;0.00;0.62;1.50;0.90;;;21.30;27.50;;;;;;2257863;61;20366;-61
2023/12/28 03:16:29;0.00;0.00;0.62;0.00;0.00;0.62;1.90;1.17;;;21.30;27.50;;;;;;2257099;61;20377;-62
2023/12/28 03:19:14;0.00;0.00;0.62;0.00;0.00;0.62;1.83;0.90;;;21.30;27.50;;;;;;2257368;61;20456;-62
2023/12/28 03:21:59;0.00;0.00;0.62;0.00;0.00;0.62;2.07;1.33;;;21.30;27.50;;;;;;2256550;61;20445;-62
2023/12/28 03:24:46;0.00;0.00;0.62;0.00;0.00;0.62;1.93;1.17;;;21.30;27.50;;;;;;2256865;61;20409;-59
2023/12/28 03:27:31;0.00;0.00;0.62;0.00;0.00;0.62;1.63;1.07;;;21.30;27.50;;;;;;2256699;61;20397;-60
2023/12/28 03:30:17;0.00;0.00;0.62;0.00;0.00;0.62;1.70;1.20;;;21.30;28.00;;;;;;2256632;61;20508;-62
2023/12/28 03:33:02;0.00;0.00;0.62;0.00;0.00;0.62;1.60;0.90;;;21.30;27.40;;;;;;2256179;61;20420;-62
2023/12/28 03:35:47;0.00;0.00;0.62;0.00;0.00;0.62;1.73;1.00;;;21.30;27.40;;;;;;2257056;61;20373;-59
2023/12/28 03:38:32;0.00;0.00;0.62;0.00;0.00;0.62;2.90;1.07;;;21.30;27.40;;;;;;2257027;61;20361;-62
2023/12/28 03:41:18;0.00;0.00;0.62;0.00;0.00;0.62;1.77;1.10;;;21.30;27.40;;;;;;2256964;61;20429;-59
2023/12/28 03:44:03;0.00;0.00;0.62;0.00;0.00;0.62;2.40;1.13;;;21.30;27.40;;;;;;2256217;61;20366;-61
2023/12/28 03:46:50;0.00;0.00;0.62;0.00;0.00;0.62;1.80;1.10;;;21.30;27.40;;;;;;2256598;61;20425;-60
2023/12/28 03:49:35;0.00;0.00;0.62;0.00;0.00;0.62;2.40;1.60;;;21.40;27.40;;;;;;2256503;61;20777;-62
2023/12/28 03:52:20;0.00;0.00;0.62;0.00;0.00;0.62;1.70;1.07;;;21.40;27.40;;;;;;2256327;61;20782;-61
2023/12/28 03:55:06;0.00;0.00;0.62;0.00;0.00;0.62;2.10;1.40;;;21.40;27.40;;;;;;2256994;61;20833;-61
2023/12/28 03:57:51;0.00;0.00;0.62;0.00;0.00;0.62;1.57;1.10;;;21.40;27.40;;;;;;2256729;61;20370;-62
2023/12/28 04:00:36;0.00;0.00;0.62;0.00;0.00;0.62;2.57;1.40;;;21.40;27.40;;;;;;2256411;61;20945;-58
2023/12/28 04:03:22;0.00;0.00;0.62;0.00;0.00;0.62;2.30;1.47;;;21.40;27.40;;;;;;2256123;61;20771;-60
2023/12/28 04:06:07;0.00;0.00;0.62;0.00;0.00;0.62;1.80;1.17;;;21.40;27.40;;;;;;2256175;61;20494;-61
2023/12/28 04:08:52;0.00;0.00;0.62;0.00;0.00;0.62;2.00;1.10;;;21.40;27.40;;;;;;2256597;61;20366;-58
2023/12/28 04:11:37;0.00;0.00;0.62;0.00;0.00;0.62;2.23;1.40;;;21.40;27.40;;;;;;2256685;61;20370;-62
2023/12/28 04:14:22;0.00;0.00;0.62;0.00;0.00;0.62;1.97;1.17;;;21.40;27.40;;;;;;2256553;61;20374;-60
2023/12/28 04:17:06;0.00;0.00;0.62;0.00;0.00;0.62;2.07;1.30;;;21.40;27.40;;;;;;2256821;61;20838;-59
2023/12/28 04:19:52;0.00;0.00;0.62;0.00;0.00;0.62;1.93;1.00;;;21.40;27.40;;;;;;2256868;61;20432;-61
2023/12/28 04:22:37;0.00;0.00;0.62;0.00;0.00;0.62;2.20;1.30;;;21.40;27.40;;;;;;2256220;61;20898;-60
2023/12/28 04:25:21;0.00;0.00;0.62;0.00;0.00;0.62;1.90;1.40;;;21.30;27.30;;;;;;2256828;61;20812;-64
2023/12/28 04:28:06;0.00;0.00;0.62;0.00;0.00;0.62;2.57;1.30;;;21.40;27.40;;;;;;2255958;61;20951;-60
2023/12/28 04:30:51;0.00;0.00;0.62;0.00;0.00;0.62;4.17;1.10;;;21.40;27.40;;;;;;2256809;61;20455;-60
2023/12/28 04:33:35;0.00;0.00;0.62;0.00;0.00;0.62;2.57;1.40;;;21.40;27.40;;;;;;2256404;61;20376;-58
2023/12/28 04:36:22;0.00;0.00;0.62;0.00;0.00;0.62;2.47;1.10;;;21.40;27.40;;;;;;2255979;61;20898;-61
2023/12/28 04:39:07;0.00;0.00;0.62;0.00;0.00;0.62;2.43;1.27;;;21.40;27.40;;;;;;2255807;61;20373;-61
2023/12/28 04:41:53;0.00;0.00;0.62;0.00;0.00;0.62;1.90;1.40;;;21.40;27.40;;;;;;2255755;61;20381;-58
2023/12/28 04:44:38;0.00;0.00;0.62;0.00;0.00;0.62;2.10;1.30;;;21.40;27.40;;;;;;2255939;61;20442;-60
2023/12/28 04:47:23;0.00;0.00;0.62;0.00;0.00;0.62;2.17;1.60;;;21.40;27.30;;;;;;2256623;61;20357;-63
2023/12/28 04:50:08;0.00;0.00;0.62;0.00;0.00;0.62;1.70;1.20;;;21.40;27.30;;;;;;2255665;61;20429;-61
2023/12/28 04:52:54;0.00;0.00;0.62;0.00;0.00;0.62;1.90;1.20;;;21.40;27.40;;;;;;2256496;61;20374;-61
2023/12/28 04:55:38;0.00;0.00;0.62;0.00;0.00;0.62;2.50;1.57;;;21.40;27.40;;;;;;2256159;61;20466;-60
2023/12/28 04:58:22;0.00;0.00;0.62;0.00;0.00;0.62;2.50;1.37;;;21.40;27.30;;;;;;2256221;61;20393;-61
2023/12/28 05:01:07;0.00;0.00;0.62;0.00;0.00;0.62;1.83;1.17;;;21.40;27.40;;;;;;2256596;61;20823;-60
2023/12/28 05:03:52;0.00;0.00;0.62;0.00;0.00;0.62;2.27;1.50;;;21.40;27.40;;;;;;2256381;61;20368;-58
2023/12/28 05:06:39;0.00;0.00;0.62;0.00;0.00;0.62;1.80;1.20;;;21.40;27.30;;;;;;2255844;61;20424;-58
2023/12/28 05:09:26;0.00;0.00;0.62;0.00;0.00;0.62;1.90;1.43;;;21.40;27.30;;;;;;2256693;61;20433;-59
2023/12/28 05:12:10;0.00;0.00;0.62;0.00;0.00;0.62;2.10;1.20;;;21.40;27.40;;;;;;2255457;61;20408;-59
2023/12/28 05:14:55;0.00;0.00;0.62;0.00;0.00;0.62;2.20;1.50;;;21.40;27.40;;;;;;2256850;61;20454;-61
2023/12/28 05:17:39;0.00;0.00;0.62;0.00;0.00;0.62;1.70;0.90;;;21.40;27.40;;;;;;2256642;61;20366;-60
2023/12/28 05:20:24;0.00;0.00;0.62;0.00;0.00;0.62;1.97;1.33;;;21.40;27.40;;;;;;2256260;61;20390;-58
2023/12/28 05:23:09;0.00;0.00;0.62;0.00;0.00;0.62;1.97;1.37;;;21.40;27.40;;;;;;2256103;61;20828;-61
2023/12/28 05:25:55;0.00;0.00;0.62;0.00;0.00;0.62;1.90;1.30;;;21.40;27.40;;;;;;2256505;61;20416;-61
2023/12/28 05:28:40;0.00;0.00;0.62;0.00;0.00;0.62;2.57;1.30;;;21.40;27.40;;;;;;2256162;61;20366;-60
2023/12/28 05:31:24;0.00;0.00;0.62;0.00;0.00;0.62;2.43;1.10;;;21.40;27.40;;;;;;2256689;61;20374;-60
2023/12/28 05:34:10;0.00;0.00;0.62;0.00;0.00;0.62;1.97;1.50;;;21.40;27.40;;;;;;2256510;61;20362;-62
2023/12/28 05:36:55;0.00;0.00;0.62;0.00;0.00;0.62;1.73;1.43;;;21.40;27.40;;;;;;2256780;61;20413;-59
2023/12/28 05:39:39;0.00;0.00;0.62;0.00;0.00;0.62;2.10;1.30;;;21.40;27.40;;;;;;2256348;61;20957;-58
2023/12/28 05:42:25;0.00;0.00;0.62;0.00;0.00;0.62;2.63;1.40;;;21.40;27.40;;;;;;2255733;61;20893;-67
2023/12/28 05:45:11;0.00;0.00;0.62;0.00;0.00;0.62;2.37;1.23;;;21.40;27.40;;;;;;2256500;61;20365;-61
2023/12/28 05:47:55;0.00;0.00;0.62;0.00;0.00;0.62;1.60;1.13;;;21.40;27.40;;;;;;2256145;61;20365;-58
2023/12/28 05:50:40;0.00;0.00;0.62;0.00;0.00;0.62;2.67;1.70;;;21.40;27.90;;;;;;2255919;61;20456;-62
2023/12/28 05:53:29;0.00;0.00;0.62;0.00;0.00;0.62;2.10;1.13;;;21.50;27.40;;;;;;2256498;61;20370;-58
2023/12/28 05:56:23;0.00;0.00;0.62;0.00;0.00;0.62;1.90;1.30;;;21.40;27.40;;;;;;2256970;61;20369;-58
2023/12/28 05:59:26;0.00;0.00;0.62;0.00;0.00;0.62;1.77;1.10;;;21.40;27.40;;;;;;2257183;61;20361;-59
2023/12/28 06:02:18;0.00;0.00;0.62;0.00;0.00;0.62;2.30;1.53;;;21.40;27.40;;;;;;2256702;61;20397;-61
2023/12/28 06:05:05;0.00;0.00;0.62;0.00;0.00;0.62;1.80;1.17;;;21.40;27.40;;;;;;2256301;61;20465;-60
2023/12/28 06:07:52;0.00;0.00;0.62;0.00;0.00;0.62;2.80;1.30;;;21.40;27.40;;;;;;2257108;61;20369;-62
2023/12/28 06:10:38;0.00;0.00;0.62;0.00;0.00;0.62;3.60;1.40;;;21.40;27.40;;;;;;2257086;61;20429;-60
2023/12/28 06:13:27;0.00;0.00;0.62;0.00;0.00;0.62;1.90;1.30;;;21.40;27.40;;;;;;2256413;61;20381;-60
2023/12/28 06:16:21;0.00;0.00;0.62;0.00;0.00;0.62;1.90;1.20;;;21.40;27.40;;;;;;2256835;61;20370;-61
2023/12/28 06:19:10;0.00;0.00;0.62;0.00;0.00;0.62;1.90;1.10;;;21.40;27.40;;;;;;2256221;61;20381;-58
2023/12/28 06:21:54;0.00;0.00;0.62;0.00;0.00;0.62;1.57;0.90;;;21.40;27.40;;;;;;2256397;61;20964;-60
2023/12/28 06:24:40;0.00;0.00;0.62;0.00;0.00;0.62;2.20;1.47;;;21.40;27.40;;;;;;2256436;61;20373;-62
2023/12/28 06:27:24;0.00;0.00;0.62;0.00;0.00;0.62;1.80;1.30;;;21.40;27.40;;;;;;2256135;61;20370;-61
2023/12/28 06:30:10;0.00;0.00;0.62;0.00;0.00;0.62;1.97;1.40;;;21.40;27.40;;;;;;2256509;61;20938;-60
2023/12/28 06:32:56;0.00;0.00;0.62;0.00;0.00;0.62;2.03;1.20;;;21.40;27.40;;;;;;2256043;61;20370;-62
2023/12/28 06:35:40;0.00;0.00;0.62;0.00;0.00;0.62;1.70;1.00;;;21.40;27.90;;;;;;2257365;61;20401;-59
2023/12/28 06:38:25;0.00;0.00;0.62;0.00;0.00;0.62;2.63;1.10;;;21.50;27.40;;;;;;2257804;61;20416;-61
2023/12/28 06:41:13;0.00;0.00;0.62;0.00;0.00;0.62;3.60;1.30;;;21.40;27.40;;;;;;2257241;61;20429;-60
2023/12/28 06:43:57;0.00;0.00;0.62;0.00;0.00;0.62;1.63;1.00;;;21.40;27.40;;;;;;2257666;61;20420;-60
2023/12/28 06:46:42;0.00;0.00;0.62;0.00;0.00;0.62;2.57;1.40;;;21.50;27.40;;;;;;2257713;61;20388;-58
2023/12/28 06:49:28;0.00;0.00;0.62;0.00;0.00;0.62;2.00;1.00;;;21.50;27.40;;;;;;2257267;61;20385;-60
2023/12/28 06:52:21;0.00;0.00;0.62;0.00;0.00;0.62;1.90;1.30;;;21.40;27.30;;;;;;2257655;61;20361;-61
2023/12/28 06:55:06;0.00;0.00;0.62;0.00;0.00;0.62;1.77;0.97;;;21.40;27.30;;;;;;2258133;61;20385;-61
2023/12/28 06:57:51;0.00;0.00;0.62;0.00;0.00;0.62;1.97;1.27;;;21.40;27.30;;;;;;2257677;61;20369;-59
2023/12/28 07:00:36;0.00;0.00;0.62;0.00;0.00;0.62;2.37;1.20;;;21.50;27.40;;;;;;2258021;61;20489;-57
2023/12/28 07:03:21;0.00;0.00;0.62;0.00;0.00;0.62;1.63;0.93;;;21.40;27.30;;;;;;2256812;61;20771;-61
2023/12/28 07:06:08;0.00;0.00;0.62;0.00;0.00;0.62;1.60;0.90;;;21.50;27.40;;;;;;2257829;61;20426;-61
2023/12/28 07:08:53;0.00;0.00;0.62;0.00;0.00;0.62;1.80;0.93;;;21.50;27.40;;;;;;2257716;61;20496;-61
2023/12/28 07:11:37;0.00;0.00;0.62;0.00;0.00;0.62;2.30;1.17;;;21.50;27.40;;;;;;2257001;61;20384;-61
2023/12/28 07:14:22;0.00;0.00;0.62;0.00;0.00;0.62;2.10;1.30;;;21.50;27.40;;;;;;2257502;61;20416;-61
2023/12/28 07:17:06;0.00;0.00;0.62;0.00;0.00;0.62;1.50;1.03;;;21.50;27.40;;;;;;2257708;61;20408;-61
2023/12/28 07:19:51;0.00;0.00;0.62;0.00;0.00;0.62;3.57;1.10;;;21.50;27.30;;;;;;2257191;61;20657;-64
2023/12/28 07:22:38;0.00;0.00;0.62;0.00;0.00;0.62;1.53;0.93;;;21.40;27.30;;;;;;2257355;61;21045;-57
2023/12/28 07:25:23;0.00;0.00;0.62;0.00;0.00;0.62;2.30;1.10;;;21.50;27.40;;;;;;2257192;61;20994;-59
2023/12/28 07:28:07;0.00;0.00;0.62;0.00;0.00;0.62;2.10;1.40;;;21.50;27.40;;;;;;2257597;61;20910;-61
2023/12/28 07:30:53;0.00;0.00;0.62;0.00;0.00;0.62;3.57;1.30;;;21.40;27.30;;;;;;2257422;61;20431;-59
2023/12/28 07:33:38;0.00;0.00;0.62;0.00;0.00;0.62;2.53;1.57;;;21.50;27.30;;;;;;2256990;61;20404;-62
2023/12/28 07:36:22;0.00;0.00;0.62;0.00;0.00;0.62;1.80;1.10;;;21.50;27.30;;;;;;2257581;61;20404;-60
2023/12/28 07:39:08;0.00;0.00;0.62;0.00;0.00;0.62;2.07;1.33;;;21.50;27.30;;;;;;2257486;61;20366;-62
2023/12/28 07:41:53;0.00;0.00;0.62;0.00;0.00;0.62;2.23;1.17;;;21.40;27.20;;;;;;2256466;61;20420;-61
2023/12/28 07:44:41;0.00;0.00;0.62;0.00;0.00;0.62;2.00;1.20;;;21.50;27.30;;;;;;2257326;61;20365;-61
2023/12/28 07:47:26;0.00;0.00;0.62;0.00;0.00;0.62;1.93;1.30;;;21.50;27.30;;;;;;2256957;61;20401;-61
2023/12/28 07:50:11;0.00;0.00;0.62;0.00;0.00;0.62;3.20;1.80;;;21.40;27.20;;;;;;2257050;61;20444;-57
2023/12/28 07:52:55;0.00;0.00;0.62;0.00;0.00;0.62;2.17;1.30;;;21.50;27.30;;;;;;2256522;61;20377;-60
2023/12/28 07:55:41;0.00;0.00;0.62;0.00;0.00;0.62;2.37;1.53;;;21.50;27.30;;;;;;2256461;61;20441;-61
2023/12/28 07:58:26;0.00;0.00;0.62;0.00;0.00;0.62;1.90;1.20;;;21.50;27.30;;;;;;2256868;61;20373;-62
2023/12/28 08:01:11;0.00;0.00;0.62;0.00;0.00;0.62;2.43;1.50;;;21.50;27.30;;;;;;2256710;61;20433;-61
2023/12/28 08:03:55;0.00;0.00;0.62;0.00;0.00;0.62;2.10;1.30;;;21.50;27.30;;;;;;2256287;61;20365;-62
2023/12/28 08:06:40;0.00;0.00;0.62;0.00;0.00;0.62;5.07;1.53;;;21.40;27.20;;;;;;2256830;61;20365;-61
2023/12/28 08:09:25;0.00;0.00;0.62;0.00;0.00;0.62;2.00;1.50;;;21.50;27.80;;;;;;2256856;61;20440;-60
2023/12/28 08:12:11;0.00;0.00;0.62;0.00;0.00;0.62;2.53;1.10;;;21.40;27.30;;;;;;2256232;61;20412;-61
2023/12/28 08:14:56;0.00;0.00;0.62;0.00;0.00;0.62;2.03;1.50;;;21.50;27.30;;;;;;2256721;61;20369;-57
2023/12/28 08:17:40;0.00;0.00;0.62;0.00;0.00;0.62;2.97;1.47;;;21.50;27.30;;;;;;2256304;61;20450;-57
2023/12/28 08:20:25;0.00;0.00;0.62;0.00;0.00;0.62;2.20;1.47;;;21.40;27.20;;;;;;2256557;61;20385;-58
2023/12/28 08:23:09;0.00;0.00;0.62;0.00;0.00;0.62;2.03;1.20;;;21.50;27.30;;;;;;2256534;61;20523;-61
2023/12/28 08:25:54;0.00;0.00;0.62;0.00;0.00;0.62;2.63;1.30;;;21.50;27.30;;;;;;2256480;61;20426;-61
2023/12/28 08:28:40;0.00;0.00;0.62;0.00;0.00;0.62;2.13;0.93;;;21.50;27.30;;;;;;2256697;61;20378;-61
2023/12/28 08:31:24;0.00;0.00;0.62;0.00;0.00;0.62;2.40;1.50;;;21.50;27.30;;;;;;2256309;61;20416;-61
2023/12/28 08:34:09;0.00;0.00;0.62;0.00;0.00;0.62;2.17;1.00;;;21.50;27.30;;;;;;2256064;61;20382;-61
2023/12/28 08:36:54;0.00;0.00;0.62;0.00;0.00;0.62;2.13;1.30;;;21.50;27.30;;;;;;2256217;61;20362;-61
2023/12/28 08:39:40;0.00;0.00;0.62;0.00;0.00;0.62;1.73;1.20;;;21.50;27.30;;;;;;2256345;61;20425;-60
2023/12/28 08:42:24;0.00;0.00;0.62;0.00;0.00;0.62;1.77;1.20;;;21.50;27.30;;;;;;2256215;61;20933;-61
2023/12/28 08:45:11;0.00;0.00;0.62;0.00;0.00;0.62;2.67;1.63;;;21.50;27.30;;;;;;2256917;61;20366;-60
2023/12/28 08:47:56;0.00;0.00;0.62;0.00;0.00;0.62;1.73;1.10;;;21.50;27.30;;;;;;2255992;61;20497;-60
2023/12/28 08:50:41;0.00;0.00;0.62;0.00;0.00;0.62;2.03;1.20;;;21.50;27.30;;;;;;2256803;61;20425;-62
2023/12/28 08:53:25;0.00;0.00;0.62;0.00;0.00;0.62;2.10;1.27;;;21.50;27.30;;;;;;2256324;61;20397;-61
2023/12/28 08:56:16;0.00;0.00;0.62;0.00;0.00;0.62;2.50;1.27;;;21.50;27.30;;;;;;2255914;61;20361;-59
2023/12/28 08:59:01;0.00;0.00;0.62;0.00;0.00;0.62;2.00;1.20;;;21.50;27.30;;;;;;2256550;61;20500;-61
2023/12/28 09:01:47;0.00;0.00;0.62;0.00;0.00;0.62;2.33;1.70;;;21.50;27.30;;;;;;2255642;61;20423;-61
2023/12/28 09:04:32;0.00;0.00;0.62;0.00;0.00;0.62;2.43;1.40;;;21.50;27.30;;;;;;2256653;61;20857;-60
2023/12/28 09:07:19;0.00;0.00;0.62;0.00;0.00;0.62;2.87;1.47;;;21.50;27.30;;;;;;2256660;61;20416;-59
2023/12/28 09:10:04;0.00;0.00;0.62;0.00;0.00;0.62;2.50;1.50;;;21.50;27.30;;;;;;2255891;61;20398;-61
2023/12/28 09:12:49;0.00;0.00;0.62;0.00;0.00;0.62;2.40;1.30;;;21.50;27.30;;;;;;2256108;61;20367;-66
2023/12/28 09:15:34;0.00;0.00;0.62;0.00;0.00;0.62;2.00;1.20;;;21.50;27.30;;;;;;2256467;61;20385;-61
2023/12/28 09:18:20;0.00;0.00;0.62;0.00;0.00;0.62;2.43;1.23;;;21.50;27.30;;;;;;2256238;61;20496;-61
2023/12/28 09:21:07;0.00;0.00;0.62;0.00;0.00;0.62;2.37;1.23;;;21.50;27.30;;;;;;2256376;61;20412;-61
2023/12/28 09:23:52;0.00;0.00;0.62;0.00;0.00;0.62;1.90;1.20;;;21.50;27.30;;;;;;2255724;61;20393;-59
2023/12/28 09:26:36;0.00;0.00;0.62;0.00;0.00;0.62;1.80;1.17;;;21.50;27.30;;;;;;2256463;61;20365;-61
2023/12/28 09:29:21;0.00;0.00;0.62;0.00;0.00;0.62;2.97;1.30;;;21.50;27.30;;;;;;2256497;61;20440;-61
2023/12/28 09:32:06;0.00;0.00;0.62;0.00;0.00;0.62;2.63;1.70;;;21.50;27.30;;;;;;2255639;61;20381;-61
2023/12/28 09:34:52;0.00;0.00;0.62;0.00;0.00;0.62;1.83;1.27;;;21.50;27.30;;;;;;2256720;61;20831;-59
2023/12/28 09:37:37;0.00;0.00;0.62;0.00;0.00;0.62;2.20;1.00;;;21.50;27.30;;;;;;2256333;61;20568;-60
2023/12/28 09:40:21;0.00;0.00;0.62;0.00;0.00;0.62;3.80;1.60;;;21.50;27.30;;;;;;2256096;61;20925;-61
2023/12/28 09:43:15;0.00;0.00;0.62;0.00;0.00;0.62;2.23;1.07;;;21.50;27.30;;;;;;2256181;61;20357;-60
2023/12/28 09:46:00;0.00;0.00;0.62;0.00;0.00;0.62;2.03;1.33;;;21.50;27.30;;;;;;2255844;61;20412;-64
2023/12/28 09:48:45;0.00;0.00;0.62;0.00;0.00;0.62;2.23;1.03;;;21.50;27.30;;;;;;2256368;61;20446;-61
2023/12/28 09:51:31;0.00;0.00;0.62;0.00;0.00;0.62;2.30;1.53;;;21.50;27.30;;;;;;2256585;61;20497;-62
2023/12/28 09:54:18;0.00;0.00;0.62;0.00;0.00;0.62;3.13;1.43;;;21.50;27.30;;;;;;2255959;61;20398;-60
2023/12/28 09:57:03;0.00;0.00;0.62;0.00;0.00;0.62;1.90;1.00;;;21.50;27.30;;;;;;2256522;61;20393;-62
2023/12/28 09:59:48;0.00;0.00;0.62;0.00;0.00;0.62;2.50;1.27;;;21.50;27.30;;;;;;2256638;61;20479;-61
2023/12/28 10:02:35;0.00;0.00;0.62;0.00;0.00;0.62;1.87;1.10;;;21.60;27.30;;;;;;2255578;61;20412;-62
2023/12/28 10:05:19;0.00;0.00;0.62;0.00;0.00;0.62;2.10;1.40;;;21.60;27.30;;;;;;2256341;61;20425;-63
2023/12/28 10:08:06;0.00;0.00;0.62;0.00;0.00;0.62;2.70;1.33;;;21.50;27.20;;;;;;2256266;61;20917;-62
2023/12/28 10:10:54;0.00;0.00;0.62;0.00;0.00;0.62;1.73;1.03;;;21.60;27.30;;;;;;2256236;61;20960;-62
2023/12/28 10:13:38;0.00;0.00;0.62;0.00;0.00;0.62;3.00;1.20;;;21.50;27.20;;;;;;2256197;61;20416;-62
2023/12/28 10:16:22;0.00;0.00;0.62;0.00;0.00;0.62;2.87;1.80;;;21.50;27.30;;;;;;2255950;61;20886;-62
2023/12/28 10:19:07;0.00;0.00;0.62;0.00;0.00;0.62;2.50;1.40;;;21.50;27.30;;;;;;2256273;61;20417;-62
2023/12/28 10:21:52;0.00;0.00;0.62;0.00;0.00;0.62;2.30;1.67;;;21.60;27.40;;;;;;2255951;61;20393;-62
2023/12/28 10:24:43;0.00;0.00;0.62;0.00;0.00;0.62;2.17;1.37;;;21.60;27.40;;;;;;2256002;61;20775;-62
2023/12/28 10:27:28;0.00;0.00;0.62;0.00;0.00;0.62;1.77;1.07;;;21.60;27.40;;;;;;2256593;61;20424;-62
2023/12/28 10:30:13;0.00;0.00;0.62;0.00;0.00;0.62;2.20;1.40;;;21.60;27.40;;;;;;2256388;61;20414;-62
2023/12/28 10:32:57;0.00;0.00;0.62;0.00;0.00;0.62;1.70;1.10;;;21.60;27.40;;;;;;2256070;61;20361;-62
2023/12/28 10:35:44;0.00;0.00;0.62;0.00;0.00;0.62;1.90;1.10;;;21.60;27.40;;;;;;2256442;61;20361;-60
2023/12/28 10:38:34;0.00;0.00;0.62;0.00;0.00;0.62;2.23;1.30;;;21.60;27.40;;;;;;2255647;61;20357;-63
2023/12/28 10:41:21;0.00;0.00;0.62;0.00;0.00;0.62;2.30;1.70;;;21.60;27.40;;;;;;2256252;61;20418;-62
2023/12/28 10:44:07;0.00;0.00;0.62;0.00;0.00;0.62;2.60;1.53;;;21.60;27.50;;;;;;2256482;61;20409;-61
2023/12/28 10:46:57;0.00;0.00;0.62;0.00;0.00;0.62;3.60;1.47;;;21.60;27.40;;;;;;2255966;61;20369;-62
2023/12/28 10:49:43;0.00;0.00;0.62;0.00;0.00;0.62;1.90;1.40;;;21.60;27.40;;;;;;2256374;61;20405;-62
2023/12/28 10:52:30;0.00;0.00;0.62;0.00;0.00;0.62;1.77;0.90;;;21.60;27.40;;;;;;2256176;61;20944;-62
2023/12/28 10:55:29;0.00;0.00;0.62;0.00;0.00;0.62;2.27;1.47;;;21.60;27.40;;;;;;2256421;61;20412;-62
2023/12/28 10:58:23;0.00;0.00;0.62;0.00;0.00;0.62;2.30;1.70;;;21.70;27.40;;;;;;2256345;61;20413;-61
2023/12/28 11:01:10;0.00;0.00;0.62;0.00;0.00;0.62;3.50;1.40;;;21.70;27.40;;;;;;2255888;61;20394;-62
2023/12/28 11:04:04;0.00;0.00;0.62;0.00;0.00;0.62;3.07;1.30;;;21.60;27.30;;;;;;2256002;61;20353;-62
2023/12/28 11:06:51;0.00;0.00;0.62;0.00;0.00;0.62;2.63;1.47;;;21.70;27.30;;;;;;2256501;61;20357;-62
2023/12/28 11:09:37;0.00;0.00;0.62;0.00;0.00;0.62;1.90;1.23;;;21.70;27.30;;;;;;2255869;61;20394;-59
2023/12/28 11:12:22;0.00;0.00;0.62;0.00;0.00;0.62;3.30;1.30;;;21.70;27.30;;;;;;2255473;61;20408;-62
2023/12/28 11:15:11;0.00;0.00;0.62;0.00;0.00;0.62;2.37;1.40;;;21.70;27.90;;;;;;2255890;61;20370;-62
2023/12/28 11:17:56;0.00;0.00;0.62;0.00;0.00;0.62;2.33;1.23;;;21.70;27.30;;;;;;2256125;61;20361;-61
2023/12/28 11:20:41;0.00;0.00;0.62;0.00;0.00;0.62;2.93;1.50;;;21.70;27.30;;;;;;2256416;61;20386;-60
2023/12/28 11:23:26;0.00;0.00;0.62;0.00;0.00;0.62;4.10;1.80;;;21.70;27.30;;;;;;2256086;61;20392;-62
2023/12/28 11:26:17;0.00;0.00;0.62;0.00;0.00;0.62;2.90;1.80;;;21.70;27.30;;;;;;2256865;61;20373;-61
2023/12/28 11:29:02;0.00;0.00;0.62;0.00;0.00;0.62;3.30;1.93;;;21.70;27.30;;;;;;2256962;61;20374;-60
2023/12/28 11:31:52;0.00;0.00;0.62;0.00;0.00;0.62;2.97;1.77;;;21.70;27.20;;;;;;2256297;61;20373;-61
2023/12/28 11:34:37;0.00;0.00;0.62;0.00;0.00;0.62;5.67;2.53;;;21.70;27.20;;;;;;2256910;61;20580;-63
2023/12/28 11:37:23;0.00;0.00;0.62;0.00;0.00;0.62;3.33;1.93;;;21.70;27.20;;;;;;2256576;61;20370;-58
2023/12/28 11:40:15;0.00;0.00;0.62;0.00;0.00;0.62;2.67;2.00;;;21.70;27.20;;;;;;2256969;61;20385;-59
2023/12/28 11:43:01;0.00;0.00;0.62;0.00;0.00;0.62;3.70;2.03;;;21.70;27.20;;;;;;2256621;61;20362;-60
2023/12/28 11:45:51;0.00;0.00;0.62;0.00;0.00;0.62;2.93;1.90;;;21.70;27.20;;;;;;2256371;61;20772;-62
2023/12/28 11:48:37;0.00;0.00;0.62;0.00;0.00;0.62;3.57;2.20;;;21.70;27.20;;;;;;2256849;61;20465;-60
2023/12/28 11:51:22;0.00;0.00;0.62;0.00;0.00;0.62;3.33;2.07;;;21.70;27.20;;;;;;2256269;61;20405;-61
2023/12/28 11:54:07;0.00;0.00;0.62;0.00;0.00;0.62;3.93;2.37;;;21.70;27.20;;;;;;2256515;61;20409;-59
2023/12/28 11:56:52;0.00;0.00;0.62;0.00;0.00;0.62;4.10;2.20;;;21.70;27.20;;;;;;2257077;61;20455;-60
2023/12/28 11:59:38;0.00;0.00;0.62;0.00;0.00;0.62;3.93;2.40;;;21.70;27.70;;;;;;2256486;61;20386;-59
2023/12/28 12:02:24;0.00;0.00;0.62;0.00;0.00;0.62;4.03;2.77;;;21.70;27.20;;;;;;2256320;61;20973;-60
2023/12/28 12:05:10;0.00;0.00;0.62;0.00;0.00;0.62;4.40;1.93;;;21.70;27.10;;;;;;2256907;61;20909;-61
2023/12/28 12:07:54;0.00;0.00;0.62;0.00;0.00;0.62;2.83;2.10;;;21.70;27.10;;;;;;2256538;61;20424;-62
2023/12/28 12:10:39;0.00;0.00;0.62;0.00;0.00;0.62;3.33;2.00;;;21.70;27.10;;;;;;2256824;61;20389;-61
2023/12/28 12:13:25;0.00;0.00;0.62;0.00;0.00;0.62;3.00;2.00;;;21.70;27.10;;;;;;2256441;61;20871;-61
2023/12/28 12:16:10;0.00;0.00;0.62;0.00;0.00;0.62;3.53;2.40;;;21.80;27.20;;;;;;2256455;61;20419;-61
2023/12/28 12:18:56;0.00;0.00;0.62;0.00;0.00;0.62;2.30;1.77;;;21.70;27.10;;;;;;2256632;61;20446;-62
2023/12/28 12:21:42;0.00;0.00;0.62;0.00;0.00;0.62;3.57;2.00;;;21.70;27.10;;;;;;2255986;61;20389;-67
2023/12/28 12:24:26;0.00;0.00;0.62;0.00;0.00;0.62;3.07;1.80;;;21.70;27.10;;;;;;2256608;61;20424;-59
2023/12/28 12:27:11;0.00;0.00;0.62;0.00;0.00;0.62;4.33;2.23;;;21.80;27.20;;;;;;2256765;61;20902;-61
2023/12/28 12:29:56;0.00;0.00;0.62;0.00;0.00;0.62;3.97;2.40;;;21.80;27.10;;;;;;2256201;61;20386;-63